Greenwich, Connecticut
Current Conditions -  °F | °C
As of 10:56 AM on Friday 24 Oct 2014 (Local Time) from KHPN Reporting Station
Broken Clouds Broken Clouds  
Wind Chill: 54°   Ceiling: 3000
Heat Index: 54°   Visibility: 10mi
Dew Point: 44°   Wind: 17mph
Humidity: 69%   Direction: 320°NW
Pressure: 29.79"   Gusts: 24mph
Location:  41.03°N, 73.63°W
Report Text: KHPN 241456Z 32015G21KT 10SM BKN030 12/07 A2979 RMK AO2 SLP090 60000 T01220067 58001
Loading
Personal Weather Stations






























Interactive Weather Map
Tropical Storm Tracking
New forecast layout! Learn more

10-Day Weather Forecast

Advertisements
Track Severe Weather on mobile